San Elizario, Texas
Current Conditions -  °F | °C
As of 6:43 AM on Monday 20 Oct 2014 (Local Time) from MMCS Reporting Station
Broken Clouds Broken Clouds  
Wind Chill: 57°   Ceiling: 25000
Heat Index: 57°   Visibility: 8mi
Dew Point: 52°   Wind: 0mph
Humidity: 82%   Direction: NA
Pressure: 30.04"   Gusts: NA
Location:  31.59°N, 106.27°W
Report Text: MMCS 201243Z 00000KT 8SM FEW040 SCT100 BKN250 14/11 A3004 RMK 8/166 HZY
Loading
Personal Weather Stations






























Interactive Weather Map
Tropical Storm Tracking
New forecast layout! Learn more

10-Day Weather Forecast

Advertisements
Track Severe Weather on mobile